Terminal Aerodrome Forecast
Issued by NWS Wichita, KS

Home | Current Version | Previous Version | Text Only | Print | Product List | Glossary On
Versions: 1 2 3 4 5 6 7 8 9 10 11 12
513
FTUS43 KICT 201120
TAFICT
TAF
KICT 201120Z 2012/2112 11008KT P6SM SCT250
     FM201600 14014G20KT P6SM SCT250
     FM210100 12012KT P6SM BKN080
     FM210700 10010KT 6SM -SHRA OVC025=

USA.gov is the U.S. government's official web portal to all federal, state and local government web resources and services.